createdAt,value
2017-07-09T00:00:05.303Z,20.64
2017-07-09T00:01:05.341Z,20.56
2017-07-09T00:02:05.388Z,20.56
2017-07-09T00:03:05.424Z,20.64
2017-07-09T00:04:05.467Z,20.65
2017-07-09T00:05:05.512Z,20.64
2017-07-09T00:06:05.546Z,20.65
2017-07-09T00:07:05.584Z,20.62
2017-07-09T00:08:05.625Z,20.66
2017-07-09T00:09:05.670Z,20.62
2017-07-09T00:10:05.703Z,20.68
2017-07-09T00:11:05.748Z,20.68
2017-07-09T00:12:05.789Z,20.69
2017-07-09T00:13:05.824Z,20.69
2017-07-09T00:14:05.868Z,20.65
2017-07-09T00:15:05.907Z,20.69
2017-07-09T00:16:05.950Z,20.58
2017-07-09T00:17:05.984Z,20.58
2017-07-09T00:18:06.031Z,20.61
2017-07-09T00:19:06.067Z,20.61
2017-07-09T00:20:06.110Z,20.49
2017-07-09T00:21:06.149Z,20.43
2017-07-09T00:22:06.187Z,20.53
2017-07-09T00:23:06.230Z,20.39
2017-07-09T00:24:06.279Z,20.42
2017-07-09T00:25:06.307Z,20.41
2017-07-09T00:26:06.346Z,20.25
2017-07-09T00:27:06.389Z,20.39
2017-07-09T00:28:06.431Z,20.34
2017-07-09T00:29:06.468Z,20.38
2017-07-09T00:30:06.513Z,20.31
2017-07-09T00:31:06.552Z,20.41
2017-07-09T00:32:06.591Z,20.46
2017-07-09T00:33:06.628Z,20.34
2017-07-09T00:34:06.729Z,20.33
2017-07-09T00:35:06.714Z,20.38
2017-07-09T00:36:06.751Z,20.38
2017-07-09T00:37:06.793Z,20.31
2017-07-09T00:38:06.833Z,20.34
2017-07-09T00:39:06.869Z,20.31
2017-07-09T00:40:06.912Z,20.27
2017-07-09T00:41:06.957Z,20.35
2017-07-09T00:42:06.996Z,20.23
2017-07-09T00:43:07.033Z,20.3
2017-07-09T00:44:07.075Z,20.24
2017-07-09T00:45:07.114Z,20.24
2017-07-09T00:46:07.159Z,20.3
2017-07-09T00:47:07.191Z,20.3
2017-07-09T00:48:07.235Z,20.24
2017-07-09T00:49:07.271Z,20.27
2017-07-09T00:50:07.309Z,20.3
2017-07-09T00:51:07.364Z,20.31
2017-07-09T00:52:07.395Z,20.3
2017-07-09T00:53:07.438Z,20.23
2017-07-09T00:54:07.801Z,20.33
2017-07-09T00:55:07.517Z,20.27
2017-07-09T00:56:07.879Z,20.3
2017-07-09T00:57:07.599Z,20.24
2017-07-09T00:58:07.957Z,20.31
2017-07-09T00:59:07.677Z,20.35
2017-07-09T01:00:07.714Z,20.28
2017-07-09T01:01:07.756Z,20.27
2017-07-09T01:02:07.793Z,20.28
2017-07-09T01:03:07.838Z,20.33
2017-07-09T01:04:07.873Z,20.31
2017-07-09T01:05:07.917Z,20.33
2017-07-09T01:06:07.957Z,20.28
2017-07-09T01:07:07.996Z,20.35
2017-07-09T01:08:08.037Z,20.28
2017-07-09T01:09:08.078Z,20.28
2017-07-09T01:10:08.118Z,20.31
2017-07-09T01:11:08.155Z,20.25
2017-07-09T01:12:08.198Z,20.34
2017-07-09T01:13:08.239Z,20.28
2017-07-09T01:14:08.274Z,20.35
2017-07-09T01:15:08.319Z,20.31
2017-07-09T01:16:08.356Z,20.3
2017-07-09T01:17:08.394Z,20.35
2017-07-09T01:18:08.450Z,20.38
2017-07-09T01:19:08.480Z,20.27
2017-07-09T01:20:08.517Z,20.38
2017-07-09T01:21:08.562Z,20.3
2017-07-09T01:22:08.598Z,20.28
2017-07-09T01:23:08.635Z,20.25
2017-07-09T01:24:08.680Z,20.3
2017-07-09T01:25:08.725Z,20.25
2017-07-09T01:26:08.760Z,20.23
2017-07-09T01:27:08.802Z,20.3
2017-07-09T01:28:08.839Z,20.27
2017-07-09T01:29:08.882Z,20.27
2017-07-09T01:30:08.920Z,20.25
2017-07-09T01:31:08.962Z,20.3
2017-07-09T01:32:09.001Z,20.31
2017-07-09T01:33:09.043Z,20.24
2017-07-09T01:34:09.078Z,20.25
2017-07-09T01:35:09.124Z,20.28
2017-07-09T01:36:09.159Z,20.27
2017-07-09T01:37:09.528Z,20.33
2017-07-09T01:38:09.256Z,20.28
2017-07-09T01:39:09.283Z,20.33
2017-07-09T01:40:09.325Z,20.35
2017-07-09T01:41:09.366Z,20.31
2017-07-09T01:42:09.400Z,20.28
2017-07-09T01:43:09.445Z,20.31
2017-07-09T01:44:09.485Z,20.23
2017-07-09T01:45:09.519Z,20.38
2017-07-09T01:46:09.563Z,20.31
2017-07-09T01:47:09.606Z,20.3
2017-07-09T01:48:09.642Z,20.35
2017-07-09T01:49:09.681Z,20.38
2017-07-09T01:50:09.725Z,20.28
2017-07-09T01:51:09.776Z,20.27
2017-07-09T01:52:09.789Z,20.31
2017-07-09T01:53:09.820Z,20.28
2017-07-09T01:54:09.848Z,20.3
2017-07-09T01:55:09.889Z,20.31
2017-07-09T01:56:09.933Z,20.31
2017-07-09T01:57:09.967Z,20.27
2017-07-09T01:58:10.019Z,20.3
2017-07-09T01:59:10.048Z,20.42
2017-07-09T02:00:10.405Z,20.35
2017-07-09T02:01:10.133Z,20.39
2017-07-09T02:02:10.168Z,20.39
2017-07-09T02:03:10.212Z,20.39
2017-07-09T02:04:10.251Z,20.39
2017-07-09T02:05:10.293Z,20.35
2017-07-09T02:06:10.331Z,20.39
2017-07-09T02:07:10.371Z,20.39
2017-07-09T02:08:10.411Z,20.33
2017-07-09T02:09:10.449Z,20.38
2017-07-09T02:10:10.492Z,20.38
2017-07-09T02:11:10.533Z,20.41
2017-07-09T02:12:10.571Z,20.42
2017-07-09T02:13:10.611Z,20.34
2017-07-09T02:14:10.648Z,20.35
2017-07-09T02:15:10.692Z,20.35
2017-07-09T02:16:10.730Z,20.38
2017-07-09T02:17:10.771Z,20.41
2017-07-09T02:18:11.129Z,20.35
2017-07-09T02:19:10.855Z,20.39
2017-07-09T02:20:10.895Z,20.34
2017-07-09T02:21:10.931Z,20.38
2017-07-09T02:22:10.974Z,20.34
2017-07-09T02:23:11.012Z,20.31
2017-07-09T02:24:11.051Z,20.25
2017-07-09T02:25:11.095Z,20.35
2017-07-09T02:26:11.133Z,20.28
2017-07-09T02:27:11.172Z,20.27
2017-07-09T02:28:11.216Z,20.3
2017-07-09T02:29:11.252Z,20.23
2017-07-09T02:30:11.293Z,20.16
2017-07-09T02:31:11.335Z,20.12
2017-07-09T02:32:11.371Z,20.06
2017-07-09T02:33:11.413Z,20.16
2017-07-09T02:34:11.457Z,20.05
2017-07-09T02:35:11.492Z,20
2017-07-09T02:36:11.538Z,20.05
2017-07-09T02:37:11.578Z,20.09
2017-07-09T02:38:11.615Z,20.08
2017-07-09T02:39:11.656Z,19.9
2017-07-09T02:40:11.696Z,20.02
2017-07-09T02:41:11.735Z,19.98
2017-07-09T02:42:11.779Z,19.91
2017-07-09T02:43:11.812Z,19.98
2017-07-09T02:44:11.854Z,19.83
2017-07-09T02:45:11.896Z,19.86
2017-07-09T02:46:12.250Z,19.86
2017-07-09T02:47:11.975Z,19.79
2017-07-09T02:48:12.016Z,19.79
2017-07-09T02:49:12.053Z,19.9
2017-07-09T02:50:12.098Z,19.79
2017-07-09T02:51:12.133Z,19.87
2017-07-09T02:52:12.174Z,19.79
2017-07-09T02:53:12.216Z,19.79
2017-07-09T02:54:12.258Z,19.88
2017-07-09T02:55:12.301Z,19.84
2017-07-09T02:56:12.338Z,19.84
2017-07-09T02:57:12.376Z,19.76
2017-07-09T02:58:12.415Z,19.78
2017-07-09T02:59:12.452Z,19.83
2017-07-09T03:00:12.495Z,19.76
2017-07-09T03:01:12.535Z,19.87
2017-07-09T03:02:12.578Z,19.86
2017-07-09T03:03:12.613Z,19.75
2017-07-09T03:04:12.655Z,19.69
2017-07-09T03:05:12.693Z,19.75
2017-07-09T03:06:12.731Z,19.83
2017-07-09T03:07:12.772Z,19.72
2017-07-09T03:08:12.824Z,19.7
2017-07-09T03:09:12.856Z,19.68
2017-07-09T03:10:12.891Z,19.73
2017-07-09T03:11:12.935Z,19.65
2017-07-09T03:12:12.980Z,19.7
2017-07-09T03:13:13.012Z,19.65
2017-07-09T03:14:13.057Z,19.69
2017-07-09T03:15:13.095Z,19.7
2017-07-09T03:16:13.129Z,19.76
2017-07-09T03:17:13.174Z,19.73
2017-07-09T03:18:13.215Z,19.73
2017-07-09T03:19:13.253Z,19.7
2017-07-09T03:20:13.293Z,19.65
2017-07-09T03:21:13.334Z,19.79
2017-07-09T03:22:13.375Z,19.86
2017-07-09T03:23:13.410Z,19.76
2017-07-09T03:24:13.451Z,19.83
2017-07-09T03:25:13.491Z,19.83
2017-07-09T03:26:13.533Z,19.83
2017-07-09T03:27:13.568Z,19.87
2017-07-09T03:28:13.614Z,19.84
2017-07-09T03:29:13.654Z,19.83
2017-07-09T03:30:13.692Z,19.8
2017-07-09T03:31:13.736Z,19.86
2017-07-09T03:32:13.770Z,19.84
2017-07-09T03:33:13.814Z,19.87
2017-07-09T03:34:13.853Z,19.91
2017-07-09T03:35:13.888Z,19.93
2017-07-09T03:36:13.932Z,19.93
2017-07-09T03:37:13.969Z,19.91
2017-07-09T03:38:14.013Z,19.93
2017-07-09T03:39:14.054Z,20.05
2017-07-09T03:40:14.091Z,20
2017-07-09T03:41:14.133Z,20.03
2017-07-09T03:42:14.168Z,20.05
2017-07-09T03:43:14.213Z,20.02
2017-07-09T03:44:14.248Z,20.09
2017-07-09T03:45:14.294Z,20.21
2017-07-09T03:46:14.340Z,20.28
2017-07-09T03:47:14.375Z,20.42
2017-07-09T03:48:14.411Z,20.54
2017-07-09T03:49:14.448Z,20.83
2017-07-09T03:50:14.494Z,20.99
2017-07-09T03:51:14.533Z,21.13
2017-07-09T03:52:14.571Z,21.23
2017-07-09T03:53:14.619Z,21.34
2017-07-09T03:54:14.654Z,21.3
2017-07-09T03:55:14.691Z,21.32
2017-07-09T03:56:14.738Z,21.2
2017-07-09T03:57:14.777Z,21.16
2017-07-09T03:58:14.825Z,21.08
2017-07-09T03:59:14.863Z,21.02
2017-07-09T04:00:14.900Z,21.02
2017-07-09T04:01:14.937Z,21.02
2017-07-09T04:02:14.978Z,21.01
2017-07-09T04:03:15.024Z,20.95
2017-07-09T04:04:15.061Z,20.86
2017-07-09T04:05:15.101Z,20.81
2017-07-09T04:06:15.139Z,20.74
2017-07-09T04:07:15.180Z,20.74
2017-07-09T04:08:15.223Z,20.69
2017-07-09T04:09:15.263Z,20.71
2017-07-09T04:10:15.302Z,20.74
2017-07-09T04:11:15.342Z,20.72
2017-07-09T04:12:15.382Z,20.68
2017-07-09T04:13:15.420Z,20.58
2017-07-09T04:14:15.465Z,20.54
2017-07-09T04:15:15.506Z,20.62
2017-07-09T04:16:15.543Z,20.62
2017-07-09T04:17:15.590Z,20.56
2017-07-09T04:18:15.625Z,20.64
2017-07-09T04:19:15.668Z,20.53
2017-07-09T04:20:15.708Z,20.58
2017-07-09T04:21:15.746Z,20.58
2017-07-09T04:22:15.784Z,20.62
2017-07-09T04:23:15.830Z,20.66
2017-07-09T04:24:15.872Z,20.54
2017-07-09T04:25:15.912Z,20.66
2017-07-09T04:26:16.276Z,20.66
2017-07-09T04:27:15.989Z,20.68
2017-07-09T04:28:16.031Z,20.61
2017-07-09T04:29:16.070Z,20.61
2017-07-09T04:30:16.114Z,20.64
2017-07-09T04:31:16.467Z,20.64
2017-07-09T04:32:16.196Z,20.61
2017-07-09T04:33:16.237Z,20.61
2017-07-09T04:34:16.275Z,20.56
2017-07-09T04:35:16.312Z,20.61
2017-07-09T04:36:16.358Z,20.61
2017-07-09T04:37:16.390Z,20.56
2017-07-09T04:38:16.435Z,20.64
2017-07-09T04:39:16.478Z,20.51
2017-07-09T04:40:16.516Z,20.53
2017-07-09T04:41:16.553Z,20.49
2017-07-09T04:42:16.597Z,20.54
2017-07-09T04:43:16.639Z,20.49
2017-07-09T04:44:16.677Z,20.59
2017-07-09T04:45:16.716Z,20.59
2017-07-09T04:46:16.757Z,20.61
2017-07-09T04:47:16.797Z,20.56
2017-07-09T04:48:16.839Z,20.61
2017-07-09T04:49:16.881Z,20.51
2017-07-09T04:50:16.922Z,20.53
2017-07-09T04:51:16.958Z,20.59
2017-07-09T04:52:17.000Z,20.61
2017-07-09T04:53:17.040Z,20.58
2017-07-09T04:54:17.080Z,20.56
2017-07-09T04:55:17.120Z,20.62
2017-07-09T04:56:17.161Z,20.56
2017-07-09T04:57:17.196Z,20.62
2017-07-09T04:58:17.238Z,20.56
2017-07-09T04:59:17.282Z,20.62
2017-07-09T05:00:17.639Z,20.62
2017-07-09T05:01:17.359Z,20.53
2017-07-09T05:02:17.403Z,20.59
2017-07-09T05:03:17.441Z,20.68
2017-07-09T05:04:17.481Z,20.72
2017-07-09T05:05:17.525Z,20.74
2017-07-09T05:06:17.563Z,20.72
2017-07-09T05:07:17.603Z,20.8
2017-07-09T05:08:17.648Z,20.71
2017-07-09T05:09:17.684Z,20.79
2017-07-09T05:10:17.722Z,20.72
2017-07-09T05:11:17.766Z,20.76
2017-07-09T05:12:17.809Z,20.79
2017-07-09T05:13:17.844Z,20.74
2017-07-09T05:14:17.887Z,20.72
2017-07-09T05:15:17.930Z,20.76
2017-07-09T05:16:17.970Z,20.77
2017-07-09T05:17:18.006Z,20.74
2017-07-09T05:18:18.050Z,20.76
2017-07-09T05:19:18.087Z,20.74
2017-07-09T05:20:18.128Z,20.62
2017-07-09T05:21:18.171Z,20.66
2017-07-09T05:22:18.212Z,20.76
2017-07-09T05:23:18.251Z,20.72
2017-07-09T05:24:18.289Z,20.74
2017-07-09T05:25:18.329Z,20.66
2017-07-09T05:26:18.372Z,20.64
2017-07-09T05:27:18.419Z,20.69
2017-07-09T05:28:18.449Z,20.68
2017-07-09T05:29:18.495Z,20.76
2017-07-09T05:30:18.534Z,20.8
2017-07-09T05:31:18.573Z,20.76
2017-07-09T05:32:18.614Z,20.72
2017-07-09T05:33:18.654Z,20.77
2017-07-09T05:34:18.692Z,20.84
2017-07-09T05:35:18.735Z,20.87
2017-07-09T05:36:18.773Z,20.89
2017-07-09T05:37:18.817Z,20.83
2017-07-09T05:38:18.855Z,20.86
2017-07-09T05:39:19.272Z,20.96
2017-07-09T05:40:18.938Z,20.9
2017-07-09T05:41:18.981Z,20.89
2017-07-09T05:42:19.018Z,20.84
2017-07-09T05:43:19.061Z,20.9
2017-07-09T05:44:19.096Z,20.93
2017-07-09T05:45:19.138Z,20.8
2017-07-09T05:46:19.199Z,20.86
2017-07-09T05:47:19.221Z,20.86
2017-07-09T05:48:19.256Z,20.89
2017-07-09T05:49:19.304Z,20.83
2017-07-09T05:50:19.339Z,20.86
2017-07-09T05:51:19.383Z,20.76
2017-07-09T05:52:19.420Z,20.76
2017-07-09T05:53:19.466Z,20.76
2017-07-09T05:54:19.506Z,20.74
2017-07-09T05:55:19.541Z,20.72
2017-07-09T05:56:19.586Z,20.79
2017-07-09T05:57:19.626Z,20.81
2017-07-09T05:58:19.663Z,20.84
2017-07-09T05:59:19.707Z,20.98
2017-07-09T06:00:19.746Z,21.01
2017-07-09T06:01:19.786Z,21.06
2017-07-09T06:02:19.828Z,21.13
2017-07-09T06:03:19.873Z,21.32
2017-07-09T06:04:19.913Z,21.34
2017-07-09T06:05:19.950Z,21.5
2017-07-09T06:06:19.989Z,21.69
2017-07-09T06:07:20.352Z,21.9
2017-07-09T06:08:20.072Z,22.27
2017-07-09T06:09:20.116Z,22.68
2017-07-09T06:10:20.159Z,23.12
2017-07-09T06:11:20.199Z,23.26
2017-07-09T06:12:20.244Z,23.4
2017-07-09T06:13:20.283Z,23.35
2017-07-09T06:14:20.325Z,23.23
2017-07-09T06:15:20.366Z,23.17
2017-07-09T06:16:20.407Z,23.09
2017-07-09T06:17:20.773Z,22.93
2017-07-09T06:18:20.492Z,22.77
2017-07-09T06:19:20.538Z,22.56
2017-07-09T06:20:20.580Z,22.5
2017-07-09T06:21:20.619Z,22.25
2017-07-09T06:22:20.661Z,22.1
2017-07-09T06:23:20.707Z,21.97
2017-07-09T06:24:20.743Z,21.88
2017-07-09T06:25:20.785Z,21.74
2017-07-09T06:26:20.824Z,21.64
2017-07-09T06:27:20.873Z,21.53
2017-07-09T06:28:20.914Z,21.56
2017-07-09T06:29:20.951Z,21.57
2017-07-09T06:30:20.995Z,21.63
2017-07-09T06:31:21.351Z,21.75
2017-07-09T06:32:21.080Z,21.81
2017-07-09T06:33:21.121Z,21.88
2017-07-09T06:34:21.157Z,21.94
2017-07-09T06:35:21.209Z,22.07
2017-07-09T06:36:21.246Z,21.95
2017-07-09T06:37:21.284Z,21.99
2017-07-09T06:38:21.324Z,21.91
2017-07-09T06:39:21.363Z,21.76
2017-07-09T06:40:21.410Z,21.63
2017-07-09T06:41:21.448Z,21.64
2017-07-09T06:42:21.491Z,21.57
2017-07-09T06:43:21.530Z,21.46
2017-07-09T06:44:21.577Z,21.44
2017-07-09T06:45:21.613Z,21.48
2017-07-09T06:46:21.665Z,21.5
2017-07-09T06:47:21.700Z,21.53
2017-07-09T06:48:21.740Z,21.48
2017-07-09T06:49:21.777Z,21.54
2017-07-09T06:50:21.822Z,21.67
2017-07-09T06:51:21.865Z,21.81
2017-07-09T06:52:21.903Z,21.91
2017-07-09T06:53:21.945Z,22.19
2017-07-09T06:54:21.991Z,22.87
2017-07-09T06:55:22.032Z,23.71
2017-07-09T06:56:22.073Z,24.31
2017-07-09T06:57:22.118Z,24.76
2017-07-09T06:58:22.158Z,25.01
2017-07-09T06:59:22.209Z,25.02
2017-07-09T07:00:22.243Z,24.97
2017-07-09T07:01:22.291Z,24.68
2017-07-09T07:02:22.331Z,24.37
2017-07-09T07:03:22.382Z,24.23
2017-07-09T07:04:22.417Z,24
2017-07-09T07:05:22.459Z,23.83
2017-07-09T07:06:22.508Z,23.65
2017-07-09T07:07:22.546Z,23.46
2017-07-09T07:08:22.592Z,23.27
2017-07-09T07:09:22.632Z,23.22
2017-07-09T07:10:22.674Z,23.2
2017-07-09T07:11:22.719Z,23.23
2017-07-09T07:12:22.764Z,23.17
2017-07-09T07:13:22.807Z,23.11
2017-07-09T07:14:22.847Z,23.08
2017-07-09T07:15:22.891Z,22.89
2017-07-09T07:16:22.932Z,22.84
2017-07-09T07:17:22.973Z,22.75
2017-07-09T07:18:23.017Z,22.67
2017-07-09T07:19:23.059Z,22.59
2017-07-09T07:20:23.098Z,22.53
2017-07-09T07:21:23.153Z,22.53
2017-07-09T07:22:23.187Z,22.43
2017-07-09T07:23:23.229Z,22.43
2017-07-09T07:24:23.268Z,22.47
2017-07-09T07:25:23.311Z,22.38
2017-07-09T07:26:23.357Z,22.38
2017-07-09T07:27:23.399Z,22.46
2017-07-09T07:28:23.443Z,22.77
2017-07-09T07:29:23.487Z,23.52
2017-07-09T07:30:23.525Z,24.37
2017-07-09T07:31:23.571Z,25.32
2017-07-09T07:32:23.615Z,26.09
2017-07-09T07:33:23.656Z,26.95
2017-07-09T07:34:24.023Z,27.82
2017-07-09T07:35:23.752Z,28.85
2017-07-09T07:36:23.799Z,29.77
2017-07-09T07:37:23.858Z,30.61
2017-07-09T07:38:23.892Z,31.15
2017-07-09T07:39:23.940Z,31.61
2017-07-09T07:40:23.987Z,32
2017-07-09T07:41:24.038Z,32.43
2017-07-09T07:42:24.088Z,32.64
2017-07-09T07:43:24.136Z,32.85
2017-07-09T07:44:24.187Z,33.1
2017-07-09T07:45:24.237Z,33.22
2017-07-09T07:46:24.286Z,32.86
2017-07-09T07:47:24.343Z,32.58
2017-07-09T07:48:24.390Z,32.13
2017-07-09T07:49:24.436Z,31.7
2017-07-09T07:50:24.489Z,31.23
2017-07-09T07:51:24.535Z,30.81
2017-07-09T07:52:24.585Z,30.56
2017-07-09T07:53:24.635Z,30.29
2017-07-09T07:54:24.681Z,30
2017-07-09T07:55:24.735Z,29.79
2017-07-09T07:56:24.781Z,29.77
2017-07-09T07:57:24.829Z,30.21
2017-07-09T07:58:24.877Z,30.76
2017-07-09T07:59:24.925Z,31.2
2017-07-09T08:00:24.979Z,31.72
2017-07-09T08:01:25.023Z,32.1
2017-07-09T08:02:25.080Z,32.35
2017-07-09T08:03:25.126Z,32.44
2017-07-09T08:04:25.180Z,32.44
2017-07-09T08:05:25.228Z,32.55
2017-07-09T08:06:25.278Z,32.55
2017-07-09T08:07:25.325Z,32.51
2017-07-09T08:08:25.383Z,32.39
2017-07-09T08:09:25.428Z,32.39
2017-07-09T08:10:25.475Z,32.66
2017-07-09T08:11:25.863Z,32.95
2017-07-09T08:12:25.579Z,33.3
2017-07-09T08:13:25.631Z,33.82
2017-07-09T08:14:25.680Z,34.38
2017-07-09T08:15:25.734Z,34.86
2017-07-09T08:16:25.788Z,35.55
2017-07-09T08:17:25.835Z,36.08
2017-07-09T08:18:25.893Z,36.56
2017-07-09T08:19:25.945Z,36.75
2017-07-09T08:20:25.995Z,36.8
2017-07-09T08:21:26.051Z,36.6
2017-07-09T08:22:26.101Z,36.2
2017-07-09T08:23:26.164Z,35.82
2017-07-09T08:24:26.209Z,35.52
2017-07-09T08:25:26.261Z,35.47
2017-07-09T08:26:26.315Z,35.45
2017-07-09T08:27:26.368Z,35.64
2017-07-09T08:28:26.425Z,35.77
2017-07-09T08:29:26.474Z,35.81
2017-07-09T08:30:26.533Z,35.85
2017-07-09T08:31:26.586Z,35.82
2017-07-09T08:32:26.635Z,35.79
2017-07-09T08:33:26.690Z,35.63
2017-07-09T08:34:26.743Z,35.66
2017-07-09T08:35:26.795Z,35.74
2017-07-09T08:36:26.851Z,36.03
2017-07-09T08:37:26.906Z,36.43
2017-07-09T08:38:26.958Z,36.91
2017-07-09T08:39:27.332Z,37.36
2017-07-09T08:40:27.067Z,37.61
2017-07-09T08:41:27.122Z,38.05
2017-07-09T08:42:27.507Z,38.27
2017-07-09T08:43:27.231Z,38.41
2017-07-09T08:44:27.289Z,38.46
2017-07-09T08:45:27.339Z,38.55
2017-07-09T08:46:27.398Z,38.52
2017-07-09T08:47:27.450Z,38.49
2017-07-09T08:48:27.511Z,38.23
2017-07-09T08:49:27.560Z,37.99
2017-07-09T08:50:27.623Z,37.86
2017-07-09T08:51:27.676Z,37.62
2017-07-09T08:52:27.726Z,37.33
2017-07-09T08:53:27.784Z,37.04
2017-07-09T08:54:27.841Z,36.77
2017-07-09T08:55:27.892Z,36.68
2017-07-09T08:56:27.943Z,36.65
2017-07-09T08:57:28.003Z,36.76
2017-07-09T08:58:28.052Z,36.97
2017-07-09T08:59:28.112Z,37.39
2017-07-09T09:00:28.168Z,37.51
2017-07-09T09:01:28.223Z,37.38
2017-07-09T09:02:28.275Z,37.23
2017-07-09T09:03:28.333Z,37.16
2017-07-09T09:04:28.387Z,37.28
2017-07-09T09:05:28.443Z,37.35
2017-07-09T09:06:28.499Z,37.29
2017-07-09T09:07:28.549Z,37.33
2017-07-09T09:08:28.609Z,37.41
2017-07-09T09:09:28.663Z,37.62
2017-07-09T09:10:28.714Z,37.85
2017-07-09T09:11:29.090Z,38.26
2017-07-09T09:12:28.831Z,38.52
2017-07-09T09:13:28.883Z,38.78
2017-07-09T09:14:28.943Z,38.75
2017-07-09T09:15:28.996Z,38.52
2017-07-09T09:16:29.051Z,38.52
2017-07-09T09:17:29.429Z,38.51
2017-07-09T09:18:29.165Z,38.22
2017-07-09T09:19:29.221Z,37.71
2017-07-09T09:20:29.277Z,37.47
2017-07-09T09:21:29.332Z,37.32
2017-07-09T09:22:29.383Z,37.36
2017-07-09T09:23:29.446Z,37.21
2017-07-09T09:24:29.820Z,37.07
2017-07-09T09:25:29.555Z,36.97
2017-07-09T09:26:29.613Z,36.67
2017-07-09T09:27:29.662Z,36.52
2017-07-09T09:28:29.723Z,36.51
2017-07-09T09:29:29.773Z,36.46
2017-07-09T09:30:29.831Z,36.58
2017-07-09T09:31:29.883Z,36.7
2017-07-09T09:32:29.942Z,36.82
2017-07-09T09:33:29.998Z,36.76
2017-07-09T09:34:30.053Z,36.39
2017-07-09T09:35:30.103Z,36.39
2017-07-09T09:36:30.162Z,36.12
2017-07-09T09:37:30.213Z,36.15
2017-07-09T09:38:30.270Z,35.92
2017-07-09T09:39:30.328Z,35.81
2017-07-09T09:40:30.383Z,35.64
2017-07-09T09:41:30.438Z,35.47
2017-07-09T09:42:30.487Z,35.48
2017-07-09T09:43:30.548Z,35.47
2017-07-09T09:44:30.601Z,35.6
2017-07-09T09:45:30.658Z,35.74
2017-07-09T09:46:30.710Z,35.79
2017-07-09T09:47:30.770Z,35.95
2017-07-09T09:48:30.828Z,36.06
2017-07-09T09:49:30.876Z,36.2
2017-07-09T09:50:30.936Z,36.19
2017-07-09T09:51:30.992Z,36.21
2017-07-09T09:52:31.045Z,36.27
2017-07-09T09:53:31.102Z,36.29
2017-07-09T09:54:31.172Z,36.17
2017-07-09T09:55:31.222Z,36.12
2017-07-09T09:56:31.279Z,36.08
2017-07-09T09:57:31.341Z,36.15
2017-07-09T09:58:31.391Z,36.24
2017-07-09T09:59:31.449Z,36.39
2017-07-09T10:00:31.517Z,36.39
2017-07-09T10:01:31.561Z,36.31
2017-07-09T10:02:31.623Z,36.33
2017-07-09T10:03:31.695Z,36.29
2017-07-09T10:04:31.738Z,36.11
2017-07-09T10:05:32.172Z,36.12
2017-07-09T10:06:31.854Z,36.04
2017-07-09T10:07:31.914Z,35.97
2017-07-09T10:08:31.969Z,36.03
2017-07-09T10:09:32.043Z,36.03
2017-07-09T10:10:32.087Z,36.06
2017-07-09T10:11:32.147Z,36.06
2017-07-09T10:12:32.205Z,36.08
2017-07-09T10:13:32.264Z,35.95
2017-07-09T10:14:32.330Z,35.91
2017-07-09T10:15:32.393Z,35.58
2017-07-09T10:16:32.444Z,35.18
2017-07-09T10:17:32.497Z,34.91
2017-07-09T10:18:32.562Z,34.73
2017-07-09T10:19:32.627Z,34.74
2017-07-09T10:20:32.678Z,34.57
2017-07-09T10:21:32.734Z,34.53
2017-07-09T10:22:32.794Z,34.39
2017-07-09T10:23:32.850Z,34.09
2017-07-09T10:24:32.909Z,33.78
2017-07-09T10:25:32.968Z,33.57
2017-07-09T10:26:33.031Z,33.61
2017-07-09T10:27:33.087Z,33.68
2017-07-09T10:28:33.146Z,33.79
2017-07-09T10:29:33.203Z,34
2017-07-09T10:30:33.267Z,34.02
2017-07-09T10:31:33.320Z,34.14
2017-07-09T10:32:33.388Z,34.09
2017-07-09T10:33:33.461Z,34.24
2017-07-09T10:34:33.501Z,34.24
2017-07-09T10:35:33.555Z,34.32
2017-07-09T10:36:33.620Z,34.32
2017-07-09T10:37:33.677Z,34.29
2017-07-09T10:38:33.738Z,34.23
2017-07-09T10:39:34.112Z,34.34
2017-07-09T10:40:33.848Z,34.42
2017-07-09T10:41:33.907Z,34.51
2017-07-09T10:42:33.968Z,34.5
2017-07-09T10:43:34.019Z,34.54
2017-07-09T10:44:34.082Z,34.56
2017-07-09T10:45:34.134Z,34.38
2017-07-09T10:46:34.192Z,34.38
2017-07-09T10:47:34.253Z,34.2
2017-07-09T10:48:34.305Z,33.98
2017-07-09T10:49:34.357Z,33.83
2017-07-09T10:50:34.418Z,33.83
2017-07-09T10:51:34.477Z,33.83
2017-07-09T10:52:34.529Z,33.85
2017-07-09T10:53:34.580Z,33.97
2017-07-09T10:54:34.640Z,34.08
2017-07-09T10:55:34.695Z,34.16
2017-07-09T10:56:34.746Z,34.19
2017-07-09T10:57:34.808Z,34.17
2017-07-09T10:58:34.861Z,34.27
2017-07-09T10:59:34.918Z,34.27
2017-07-09T11:00:34.970Z,34.08
2017-07-09T11:01:35.026Z,33.82
2017-07-09T11:02:35.093Z,33.61
2017-07-09T11:03:35.139Z,33.42
2017-07-09T11:04:35.198Z,33.42
2017-07-09T11:05:35.245Z,33.3
2017-07-09T11:06:35.305Z,33.14
2017-07-09T11:07:35.356Z,33.17
2017-07-09T11:08:35.427Z,33.17
2017-07-09T11:09:35.461Z,33.17
2017-07-09T11:10:35.522Z,33.19
2017-07-09T11:11:35.579Z,33.15
2017-07-09T11:12:35.627Z,33.19
2017-07-09T11:13:35.682Z,33.14
2017-07-09T11:14:35.762Z,33.1
2017-07-09T11:15:35.788Z,33.1
2017-07-09T11:16:35.843Z,32.99
2017-07-09T11:17:35.894Z,32.88
2017-07-09T11:18:35.947Z,32.74
2017-07-09T11:19:36.001Z,32.67
2017-07-09T11:20:36.047Z,32.57
2017-07-09T11:21:36.102Z,32.57
2017-07-09T11:22:36.150Z,32.33
2017-07-09T11:23:36.204Z,31.96
2017-07-09T11:24:36.250Z,31.79
2017-07-09T11:25:36.304Z,31.61
2017-07-09T11:26:36.353Z,31.54
2017-07-09T11:27:36.407Z,31.5
2017-07-09T11:28:36.459Z,31.48
2017-07-09T11:29:36.527Z,31.45
2017-07-09T11:30:36.569Z,31.54
2017-07-09T11:31:36.622Z,31.49
2017-07-09T11:32:36.658Z,31.55
2017-07-09T11:33:36.702Z,31.53
2017-07-09T11:34:36.755Z,31.43
2017-07-09T11:35:36.803Z,31.4
2017-07-09T11:36:36.854Z,31.39
2017-07-09T11:37:36.897Z,31.38
2017-07-09T11:38:36.953Z,31.42
2017-07-09T11:39:37.041Z,31.38
2017-07-09T11:40:37.050Z,31.4
2017-07-09T11:41:37.094Z,31.3
2017-07-09T11:42:37.148Z,31.21
2017-07-09T11:43:37.190Z,31.3
2017-07-09T11:44:37.238Z,31.17
2017-07-09T11:45:37.287Z,31.18
2017-07-09T11:46:37.341Z,31.12
2017-07-09T11:47:37.387Z,31.01
2017-07-09T11:48:37.450Z,30.94
2017-07-09T11:49:37.479Z,30.93
2017-07-09T11:50:37.531Z,30.9
2017-07-09T11:51:37.575Z,30.93
2017-07-09T11:52:37.627Z,31.11
2017-07-09T11:53:37.675Z,31.08
2017-07-09T11:54:37.720Z,31.15
2017-07-09T11:55:37.771Z,31.11
2017-07-09T11:56:37.819Z,31.3
2017-07-09T11:57:37.862Z,31.17
2017-07-09T11:58:37.912Z,31.13
2017-07-09T11:59:37.956Z,31.15
2017-07-09T12:00:38.011Z,30.94
2017-07-09T12:01:38.056Z,30.99
2017-07-09T12:02:38.131Z,30.81
2017-07-09T12:03:38.148Z,30.89
2017-07-09T12:04:38.197Z,30.76
2017-07-09T12:05:38.245Z,30.76
2017-07-09T12:06:38.296Z,30.78
2017-07-09T12:07:38.345Z,30.83
2017-07-09T12:08:38.386Z,30.8
2017-07-09T12:09:38.437Z,30.93
2017-07-09T12:10:38.481Z,30.96
2017-07-09T12:11:38.528Z,30.96
2017-07-09T12:12:38.586Z,30.9
2017-07-09T12:13:38.638Z,30.98
2017-07-09T12:14:38.675Z,30.93
2017-07-09T12:15:38.722Z,31.02
2017-07-09T12:16:38.787Z,30.99
2017-07-09T12:17:38.817Z,30.98
2017-07-09T12:18:38.867Z,31.09
2017-07-09T12:19:38.916Z,31.12
2017-07-09T12:20:38.960Z,31.13
2017-07-09T12:21:39.009Z,31.21
2017-07-09T12:22:39.053Z,31.23
2017-07-09T12:23:39.106Z,31.31
2017-07-09T12:24:39.154Z,31.38
2017-07-09T12:25:39.200Z,31.46
2017-07-09T12:26:39.247Z,31.43
2017-07-09T12:27:39.296Z,31.55
2017-07-09T12:28:39.345Z,31.6
2017-07-09T12:29:39.396Z,31.54
2017-07-09T12:30:39.439Z,31.49
2017-07-09T12:31:39.490Z,31.58
2017-07-09T12:32:39.534Z,31.58
2017-07-09T12:33:39.583Z,31.65
2017-07-09T12:34:39.637Z,31.65
2017-07-09T12:35:39.683Z,31.75
2017-07-09T12:36:39.736Z,31.72
2017-07-09T12:37:39.778Z,31.79
2017-07-09T12:38:39.831Z,31.88
2017-07-09T12:39:39.877Z,31.92
2017-07-09T12:40:39.925Z,31.88
2017-07-09T12:41:39.982Z,31.95
2017-07-09T12:42:40.020Z,31.82
2017-07-09T12:43:40.073Z,31.8
2017-07-09T12:44:40.116Z,31.82
2017-07-09T12:45:40.163Z,31.76
2017-07-09T12:46:40.214Z,31.77
2017-07-09T12:47:40.259Z,31.82
2017-07-09T12:48:40.312Z,31.79
2017-07-09T12:49:40.354Z,31.84
2017-07-09T12:50:40.402Z,31.8
2017-07-09T12:51:40.452Z,31.82
2017-07-09T12:52:40.500Z,31.7
2017-07-09T12:53:40.547Z,31.67
2017-07-09T12:54:40.598Z,31.62
2017-07-09T12:55:40.645Z,31.5